Ocean City, MD (21842)

5:20 AM EDT on August 05, 2015 (GMT -0400)
APRSWXNET | | Change Station
CLOSE
Current Station
Personal Weather Station
Location: Ocean City, MD
Elevation: 16 ft
Nearby Weather Stations

Elev 16 ft 38.39 °N, 75.13 °W | Updated 22 minutes ago

Clear
Clear
72 °F
Feels Like 72 °F
N
3
Wind Variable Wind from NW
Gusts 6.0 mph

Today
High -- | Low -- °F
--% Chance of Precip.
Yesterday
High -- | Low -- °F
Precip. -- in
6:05 AM 8:06 PM
Waning Gibbous, 69% visible
Pressure 29.92 in
Visibility 4.0 miles
Clouds Mostly Cloudy 200 ft
Dew Point 70 °F
Humidity 94%
Rainfall in
Snow Depth Not available.
UV 0 out of 12
Pollen 6.90 out of 12
Air Quality Not available.
Flu Activity Not available.
SPECI KSBY 050911Z AUTO 31008KT 4SM BR BKN002 22/22 A2992 RMK AO2 T02170217

More Conditions Fewer Conditions

Pressure 29.92 in
Visibility 4.0 miles
Clouds Mostly Cloudy 200 ft
Dew Point 70 °F
Humidity 94%
Rainfall in
Snow Depth Not available.
UV 0 out of 12
Pollen 6.90 out of 12
Air Quality Not available.
Flu Activity Not available.
SPECI KSBY 050911Z AUTO 31008KT 4SM BR BKN002 22/22 A2992 RMK AO2 T02170217

More Conditions Fewer Conditions

10-Day Weather Forecast

×

Almanac

Astronomy

Aug. 05, 2015 Rise Set
Actual Time
Civil Twilight
Nautical Twilight
Astronomical Twilight
Moon
Length of Visible Light
Length of Day
Tomorrow will be .
, % of the Moon is Illuminated

Today's Extremes

State Highs State Lows

Community

WunderPhotos

Upload Photos

1,844,105 photos uploaded!

WunderBlogs® & News

Nearby

Air Quality

  Air Quality AQ Index Pollutant
Not available.

Snow Depth

Station Depth Elevation

Earthquake Activity

City Distance Mag. Time & Date
Minimum magnitude displayed is 2.5.

Coastal Water Temperatures

Place Temperature

Stations

Nearby Weather Stations

Station Location Temp. Windchill Dew Point Humidity Wind Precip. Elev Updated Type